Time;durP1;ratioP1;P1;durP2;ratioP2;P2;SDS_P1;SDS_P2;PMS_P1;PMS_P2;Temp;Humidity;BMP_temperature;BMP_pressure;BME280_temperature;BME280_humidity;BME280_pressure;Samples;Min_cycle;Max_cycle;Signal;HPM_P1;HPM_P2
2021/08/19 00:00:08;;;;;;;12.40;10.05;;;15.10;99.90;;;;;;4973932;28;20034;-70
2021/08/19 00:02:35;;;;;;;12.18;9.93;;;15.10;99.90;;;;;;4973925;28;20026;-69
2021/08/19 00:05:03;;;;;;;11.60;10.40;;;15.20;99.90;;;;;;4974028;28;20037;-70
2021/08/19 00:07:31;;;;;;;10.38;9.38;;;15.30;99.90;;;;;;4975708;28;20027;-71
2021/08/19 00:09:58;;;;;;;16.55;11.00;;;15.30;99.90;;;;;;4975643;28;20098;-70
2021/08/19 00:12:26;;;;;;;10.38;9.27;;;15.50;99.90;;;;;;4975197;28;20050;-70
2021/08/19 00:14:53;;;;;;;14.77;9.90;;;15.60;99.90;;;;;;4974860;28;20046;-69
2021/08/19 00:17:20;;;;;;;14.02;9.77;;;15.70;99.90;;;;;;4973769;28;20462;-68
2021/08/19 00:19:48;;;;;;;13.93;9.18;;;15.70;99.90;;;;;;4974043;28;20065;-68
2021/08/19 00:22:15;;;;;;;11.45;8.05;;;15.80;99.90;;;;;;4975211;28;20464;-68
2021/08/19 00:24:42;;;;;;;9.95;9.05;;;15.90;99.90;;;;;;4975600;28;20027;-69
2021/08/19 00:27:10;;;;;;;11.80;9.70;;;16.10;99.90;;;;;;4975540;28;20054;-69
2021/08/19 00:29:37;;;;;;;10.85;8.82;;;16.30;99.90;;;;;;4975135;28;20480;-69
2021/08/19 00:32:05;;;;;;;7.53;6.72;;;16.30;99.90;;;;;;4973854;28;20034;-70
2021/08/19 00:34:33;;;;;;;9.52;8.00;;;16.60;99.90;;;;;;4974963;28;20113;-70
2021/08/19 00:37:00;;;;;;;11.13;8.35;;;16.60;99.90;;;;;;4974838;28;20026;-71
2021/08/19 00:39:28;;;;;;;11.70;7.55;;;16.70;99.90;;;;;;4974899;28;20026;-71
2021/08/19 00:41:55;;;;;;;11.35;7.47;;;16.70;99.90;;;;;;4974028;28;20441;-70
2021/08/19 00:44:23;;;;;;;9.02;6.55;;;16.70;99.90;;;;;;4975029;28;20030;-71
2021/08/19 00:46:51;;;;;;;7.47;6.32;;;16.80;99.90;;;;;;4973653;28;20033;-71
2021/08/19 00:49:18;;;;;;;8.20;6.32;;;16.90;99.90;;;;;;4973557;28;20455;-71
2021/08/19 00:51:48;;;;;;;7.68;5.25;;;17.00;99.90;;;;;;4974717;28;20022;-71
2021/08/19 00:54:20;;;;;;;8.77;5.80;;;17.30;99.90;;;;;;4975281;28;20464;-71
2021/08/19 00:56:50;;;;;;;12.18;6.43;;;17.50;99.90;;;;;;4974967;28;20026;-71
2021/08/19 00:59:24;;;;;;;9.50;5.68;;;17.50;99.90;;;;;;4975089;28;20034;-71
2021/08/19 01:01:55;;;;;;;8.10;5.72;;;17.50;99.90;;;;;;4973255;28;20073;-71
2021/08/19 01:04:22;;;;;;;11.35;6.30;;;17.50;99.80;;;;;;4974577;28;20058;-72
2021/08/19 01:06:50;;;;;;;10.43;7.07;;;17.60;99.90;;;;;;4974948;28;20082;-71
2021/08/19 01:09:18;;;;;;;11.05;6.25;;;17.50;99.80;;;;;;4973138;28;20536;-72
2021/08/19 01:11:46;;;;;;;10.65;5.93;;;17.80;99.90;;;;;;4973925;28;20445;-70
2021/08/19 01:14:15;;;;;;;8.52;6.07;;;17.80;99.90;;;;;;4973825;28;20087;-71
2021/08/19 01:16:51;;;;;;;8.90;5.90;;;17.80;99.90;;;;;;4972776;28;20038;-72
2021/08/19 01:19:21;;;;;;;9.30;5.93;;;17.80;99.80;;;;;;4973927;28;20529;-72
2021/08/19 01:21:51;;;;;;;7.97;5.78;;;17.80;99.50;;;;;;4973927;28;20022;-72
2021/08/19 01:24:18;;;;;;;9.30;5.00;;;18.10;99.20;;;;;;4972500;28;20515;-72
2021/08/19 01:26:48;;;;;;;11.02;5.55;;;18.30;99.50;;;;;;4973928;28;20300;-73
2021/08/19 01:29:16;;;;;;;6.75;5.00;;;18.40;98.90;;;;;;4974014;28;20026;-72
2021/08/19 01:32:01;;;;;;;5.40;4.63;;;18.60;98.80;;;;;;4972432;28;20049;-72
2021/08/19 01:34:29;;;;;;;7.25;4.07;;;18.90;98.00;;;;;;4973671;28;20027;-72
2021/08/19 01:36:57;;;;;;;6.75;4.22;;;19.00;97.50;;;;;;4973611;28;20555;-72
2021/08/19 01:39:25;;;;;;;6.53;3.85;;;19.20;96.70;;;;;;4973707;28;20490;-75
2021/08/19 01:41:52;;;;;;;7.30;4.50;;;19.20;96.80;;;;;;4973800;28;20034;-71
2021/08/19 01:44:20;;;;;;;5.20;4.22;;;19.30;96.60;;;;;;4973854;28;20037;-73
2021/08/19 01:46:56;;;;;;;9.25;4.85;;;19.30;96.50;;;;;;4972941;28;20423;-73
2021/08/19 01:49:23;;;;;;;7.05;4.45;;;19.40;95.40;;;;;;4974237;28;20141;-73
2021/08/19 01:51:51;;;;;;;6.78;4.55;;;19.60;95.70;;;;;;4973938;28;20082;-73
2021/08/19 01:54:19;;;;;;;7.25;4.80;;;19.90;96.00;;;;;;4978003;28;20035;-73
2021/08/19 01:56:46;;;;;;;7.60;5.03;;;20.00;96.00;;;;;;4976807;28;20027;-71
2021/08/19 01:59:15;;;;;;;5.85;4.72;;;19.80;96.10;;;;;;4977762;28;20359;-72
2021/08/19 02:01:43;;;;;;;6.43;5.05;;;19.50;96.60;;;;;;4976292;28;20134;-71
2021/08/19 02:04:10;;;;;;;5.40;4.40;;;19.50;95.90;;;;;;4977545;28;20105;-73
2021/08/19 02:06:38;;;;;;;5.15;4.35;;;19.60;96.10;;;;;;4977428;28;20022;-72
2021/08/19 02:09:06;;;;;;;7.18;5.03;;;19.70;95.60;;;;;;4977461;28;20030;-72
2021/08/19 02:11:33;;;;;;;7.82;4.65;;;19.70;95.40;;;;;;4975943;28;20455;-73
2021/08/19 02:14:01;;;;;;;4.78;4.22;;;19.90;95.90;;;;;;4977232;28;20101;-73
2021/08/19 02:16:28;;;;;;;7.25;4.78;;;20.20;95.00;;;;;;4975674;28;20039;-72
2021/08/19 02:18:58;;;;;;;7.80;4.93;;;20.30;93.90;;;;;;4975973;28;20023;-72
2021/08/19 02:21:26;;;;;;;7.38;5.00;;;20.30;94.60;;;;;;4975950;28;20019;-71
2021/08/19 02:23:53;;;;;;;10.02;4.70;;;20.30;94.90;;;;;;4976082;28;20081;-72
2021/08/19 02:26:20;;;;;;;8.25;5.55;;;20.30;95.10;;;;;;4977555;28;20476;-72
2021/08/19 02:28:48;;;;;;;9.55;6.25;;;20.40;95.20;;;;;;4977375;28;20027;-73
2021/08/19 02:31:16;;;;;;;11.32;5.95;;;20.50;94.60;;;;;;4977408;28;20407;-72
2021/08/19 02:33:43;;;;;;;10.20;5.88;;;20.50;94.60;;;;;;4977049;28;20030;-72
2021/08/19 02:36:10;;;;;;;9.10;5.05;;;20.50;95.20;;;;;;4977285;28;20015;-71
2021/08/19 02:38:38;;;;;;;7.85;5.05;;;20.60;94.70;;;;;;4976910;28;20022;-71
2021/08/19 02:41:05;;;;;;;12.57;6.18;;;20.30;94.70;;;;;;4975792;28;20488;-71
2021/08/19 02:43:34;;;;;;;12.73;6.13;;;20.30;95.30;;;;;;4976868;28;20022;-71
2021/08/19 02:46:01;;;;;;;16.13;6.97;;;20.40;95.20;;;;;;4976674;28;20475;-72
2021/08/19 02:48:28;;;;;;;18.70;6.30;;;20.40;95.40;;;;;;4977015;28;20031;-71
2021/08/19 02:50:56;;;;;;;10.32;5.70;;;20.80;95.90;;;;;;4976736;28;20366;-71
2021/08/19 02:53:23;;;;;;;11.85;6.63;;;20.80;95.20;;;;;;4976698;28;20483;-71
2021/08/19 02:55:50;;;;;;;12.02;4.72;;;20.90;95.10;;;;;;4976668;28;20424;-71
2021/08/19 02:58:18;;;;;;;6.97;4.72;;;20.80;95.70;;;;;;4976457;28;20022;-71
2021/08/19 03:00:45;;;;;;;8.00;3.97;;;21.00;95.30;;;;;;4976618;28;20111;-72
2021/08/19 03:03:12;;;;;;;9.82;5.70;;;21.20;94.90;;;;;;4975917;28;20019;-72
2021/08/19 03:05:40;;;;;;;10.45;5.97;;;21.00;95.20;;;;;;4976626;28;20053;-73
2021/08/19 03:08:07;;;;;;;9.55;4.80;;;20.70;96.10;;;;;;4959105;28;20031;-74
2021/08/19 03:10:35;;;;;;;9.27;4.47;;;20.50;95.90;;;;;;4975215;28;20113;-72
2021/08/19 03:13:02;;;;;;;10.00;4.10;;;20.50;96.80;;;;;;4976180;28;20451;-74
2021/08/19 03:15:29;;;;;;;9.50;4.50;;;20.30;96.60;;;;;;4976056;28;20050;-73
2021/08/19 03:17:57;;;;;;;12.02;4.68;;;20.00;96.60;;;;;;4976057;28;20118;-73
2021/08/19 03:20:25;;;;;;;6.72;5.10;;;20.20;96.90;;;;;;4976228;28;20023;-73
2021/08/19 03:22:55;;;;;;;6.70;4.22;;;20.60;96.80;;;;;;4976419;28;20105;-73
2021/08/19 03:25:23;;;;;;;7.20;4.38;;;20.60;97.10;;;;;;4974564;28;20101;-73
2021/08/19 03:27:50;;;;;;;9.35;4.47;;;20.50;97.00;;;;;;4974730;28;20034;-73
2021/08/19 03:30:18;;;;;;;7.88;4.43;;;20.50;97.00;;;;;;4974779;28;20387;-74
2021/08/19 03:32:45;;;;;;;6.85;5.22;;;20.70;96.20;;;;;;4974778;28;20035;-74
2021/08/19 03:35:12;;;;;;;9.75;6.10;;;20.50;96.50;;;;;;4974596;28;20125;-75
2021/08/19 03:37:40;;;;;;;8.02;5.07;;;20.50;96.50;;;;;;4974669;28;20051;-71
2021/08/19 03:40:08;;;;;;;10.45;5.72;;;20.60;96.60;;;;;;4975782;28;20031;-71
2021/08/19 03:42:37;;;;;;;9.55;5.30;;;20.70;95.90;;;;;;4974649;28;20085;-72
2021/08/19 03:45:08;;;;;;;5.85;4.93;;;20.90;95.80;;;;;;4974354;28;20027;-72
2021/08/19 03:47:35;;;;;;;8.13;4.88;;;21.00;96.10;;;;;;4974204;28;20030;-71
2021/08/19 03:50:05;;;;;;;5.47;4.05;;;21.20;95.70;;;;;;4974169;28;20033;-73
2021/08/19 03:52:32;;;;;;;5.22;4.22;;;20.70;95.80;;;;;;4975493;28;20472;-72
2021/08/19 03:55:00;;;;;;;6.65;4.53;;;20.30;96.00;;;;;;4975401;28;20553;-72
2021/08/19 03:57:27;;;;;;;5.57;4.60;;;20.00;96.70;;;;;;4975340;28;20098;-74
2021/08/19 03:59:54;;;;;;;9.50;4.72;;;19.60;97.10;;;;;;4975250;28;20033;-74
2021/08/19 04:02:22;;;;;;;9.82;4.30;;;19.70;97.50;;;;;;4975320;28;20031;-74
2021/08/19 04:04:49;;;;;;;7.05;4.13;;;19.80;97.40;;;;;;4973881;28;20027;-73
2021/08/19 04:07:17;;;;;;;8.02;4.22;;;19.60;97.60;;;;;;4957753;28;20039;-70
2021/08/19 04:09:44;;;;;;;4.72;3.63;;;19.70;97.60;;;;;;4975167;28;20026;-73
2021/08/19 04:12:11;;;;;;;6.40;4.13;;;19.40;97.50;;;;;;4975000;28;20403;-72
2021/08/19 04:14:39;;;;;;;5.20;3.85;;;19.20;98.30;;;;;;4973162;28;20082;-70
2021/08/19 04:17:06;;;;;;;8.00;4.18;;;19.20;98.30;;;;;;4975018;28;20022;-71
2021/08/19 04:19:34;;;;;;;4.68;3.60;;;19.40;98.00;;;;;;4973658;28;20097;-72
2021/08/19 04:22:01;;;;;;;6.75;4.82;;;19.50;98.10;;;;;;4974899;28;20388;-71
2021/08/19 04:24:29;;;;;;;8.82;4.03;;;19.50;98.50;;;;;;4974723;28;20369;-73
2021/08/19 04:26:56;;;;;;;7.43;4.40;;;19.20;98.30;;;;;;4974765;28;20023;-73
2021/08/19 04:29:24;;;;;;;9.38;4.38;;;18.90;99.00;;;;;;4973418;28;20078;-73
2021/08/19 04:31:51;;;;;;;7.35;4.25;;;19.00;99.30;;;;;;4974811;28;20023;-72
2021/08/19 04:34:18;;;;;;;8.32;4.30;;;19.30;99.10;;;;;;4974758;28;20030;-72
2021/08/19 04:36:46;;;;;;;5.25;4.10;;;19.60;98.90;;;;;;4973497;28;20487;-72
2021/08/19 04:39:13;;;;;;;6.13;4.60;;;19.70;98.60;;;;;;4974734;28;20025;-73
2021/08/19 04:41:42;;;;;;;6.43;4.30;;;19.80;98.80;;;;;;4974811;28;20026;-73
2021/08/19 04:44:09;;;;;;;9.63;4.57;;;19.70;98.90;;;;;;4974679;28;20027;-73
2021/08/19 04:46:36;;;;;;;14.05;5.13;;;19.80;99.30;;;;;;4974658;28;20027;-71
2021/08/19 04:49:06;;;;;;;7.28;4.20;;;19.90;98.90;;;;;;4974566;28;20061;-72
2021/08/19 04:51:37;;;;;;;7.95;4.55;;;19.70;98.80;;;;;;4974571;28;20027;-71
2021/08/19 04:54:06;;;;;;;9.32;4.20;;;19.60;99.30;;;;;;4974493;28;20189;-70
2021/08/19 04:56:37;;;;;;;8.35;4.50;;;19.40;99.90;;;;;;4973098;28;20403;-71
2021/08/19 04:59:08;;;;;;;7.07;4.10;;;19.40;99.80;;;;;;4974500;28;20081;-71
2021/08/19 05:01:38;;;;;;;9.57;4.90;;;19.40;99.90;;;;;;4974440;28;20023;-71
2021/08/19 05:04:05;;;;;;;5.70;4.32;;;19.40;99.90;;;;;;4973256;28;20030;-71
2021/08/19 05:06:34;;;;;;;6.47;3.75;;;19.30;99.90;;;;;;4973581;28;20615;-73
2021/08/19 05:09:05;;;;;;;9.07;4.43;;;19.10;99.90;;;;;;4974506;28;20161;-72
2021/08/19 05:11:33;;;;;;;6.93;4.30;;;18.90;99.90;;;;;;4972989;28;20037;-72
2021/08/19 05:14:00;;;;;;;8.95;4.60;;;18.80;99.90;;;;;;4974416;28;20034;-72
2021/08/19 05:16:28;;;;;;;7.38;4.13;;;18.70;99.90;;;;;;4973275;28;20050;-72
2021/08/19 05:18:56;;;;;;;6.53;4.22;;;18.40;99.90;;;;;;4973479;28;20505;-71
2021/08/19 05:21:24;;;;;;;6.63;4.20;;;18.50;99.90;;;;;;4974362;28;20019;-71
2021/08/19 05:23:53;;;;;;;8.40;4.13;;;18.50;99.90;;;;;;4973057;28;20538;-72
2021/08/19 05:26:20;;;;;;;5.75;4.15;;;18.50;99.90;;;;;;4972462;28;20066;-72
2021/08/19 05:28:49;;;;;;;6.35;4.38;;;18.40;99.90;;;;;;4973121;28;20460;-73
2021/08/19 05:31:16;;;;;;;5.47;4.18;;;18.20;99.90;;;;;;4974207;28;20023;-72
2021/08/19 05:33:44;;;;;;;9.13;4.20;;;17.90;99.90;;;;;;4973025;28;20031;-71
2021/08/19 05:36:12;;;;;;;8.82;4.50;;;17.80;99.90;;;;;;4974411;28;20027;-74
2021/08/19 05:38:40;;;;;;;10.82;4.90;;;17.80;99.90;;;;;;4974326;28;20023;-74
2021/08/19 05:41:08;;;;;;;7.65;4.60;;;17.90;99.90;;;;;;4974364;28;20057;-72
2021/08/19 05:43:36;;;;;;;9.63;5.00;;;18.00;99.90;;;;;;4974463;28;20023;-73
2021/08/19 05:46:03;;;;;;;9.23;4.88;;;18.00;99.90;;;;;;4974340;28;20034;-72
2021/08/19 05:48:30;;;;;;;7.50;4.72;;;17.90;99.90;;;;;;4974467;28;20118;-73
2021/08/19 05:50:58;;;;;;;14.27;5.15;;;18.00;99.90;;;;;;4974222;28;20098;-72
2021/08/19 05:53:25;;;;;;;6.68;5.28;;;18.00;99.90;;;;;;4972789;28;20026;-72
2021/08/19 05:55:52;;;;;;;8.23;5.07;;;18.10;99.90;;;;;;4974280;28;20035;-73
2021/08/19 05:58:20;;;;;;;9.85;5.88;;;18.10;99.90;;;;;;4974649;28;20491;-73
2021/08/19 06:00:51;;;;;;;9.85;5.13;;;18.00;99.90;;;;;;4973150;28;20065;-73
2021/08/19 06:03:20;;;;;;;9.95;5.68;;;17.90;99.90;;;;;;4974258;28;20019;-73
2021/08/19 06:05:49;;;;;;;7.23;5.10;;;17.70;99.90;;;;;;4974243;28;20388;-72
2021/08/19 06:08:17;;;;;;;8.00;6.07;;;17.60;99.90;;;;;;4956724;28;20402;-72
2021/08/19 06:10:44;;;;;;;8.75;4.93;;;17.60;99.90;;;;;;4973898;28;20037;-73
2021/08/19 06:13:12;;;;;;;7.93;5.30;;;17.50;99.90;;;;;;4974205;28;20419;-75
2021/08/19 06:15:39;;;;;;;9.30;5.57;;;17.40;99.90;;;;;;4973704;28;20042;-74
2021/08/19 06:18:06;;;;;;;8.50;4.90;;;17.40;99.90;;;;;;4973910;28;20022;-73
2021/08/19 06:20:34;;;;;;;10.43;5.18;;;17.40;99.90;;;;;;4974096;28;20045;-74
2021/08/19 06:23:02;;;;;;;7.93;5.53;;;17.30;99.90;;;;;;4973942;28;20023;-72
2021/08/19 06:25:32;;;;;;;12.02;6.47;;;17.30;99.90;;;;;;4972720;28;20033;-73
2021/08/19 06:28:00;;;;;;;13.48;5.60;;;17.30;99.90;;;;;;4974146;28;20026;-72
2021/08/19 06:30:27;;;;;;;9.57;6.05;;;17.20;99.90;;;;;;4972827;28;20428;-71
2021/08/19 06:32:54;;;;;;;7.90;5.90;;;17.10;99.90;;;;;;4973892;28;20446;-71
2021/08/19 06:35:22;;;;;;;10.65;6.13;;;17.10;99.90;;;;;;4972535;28;20090;-71
2021/08/19 06:37:49;;;;;;;8.15;5.45;;;17.00;99.90;;;;;;4974013;28;20083;-71
2021/08/19 06:40:16;;;;;;;9.40;5.57;;;16.90;99.90;;;;;;4976707;28;20033;-72
2021/08/19 06:42:44;;;;;;;7.43;5.97;;;16.90;99.90;;;;;;4977382;28;20101;-72
2021/08/19 06:45:12;;;;;;;11.00;6.38;;;16.70;99.90;;;;;;4977745;28;20074;-71
2021/08/19 06:47:39;;;;;;;7.32;5.90;;;16.60;99.90;;;;;;4975793;28;20027;-71
2021/08/19 06:50:08;;;;;;;11.85;6.75;;;16.50;99.90;;;;;;4977126;28;20030;-71
2021/08/19 06:52:44;;;;;;;11.45;6.63;;;16.50;99.90;;;;;;4975768;28;20030;-71
2021/08/19 06:55:12;;;;;;;12.43;6.30;;;16.40;99.90;;;;;;4977242;28;20364;-71
2021/08/19 06:57:40;;;;;;;8.55;6.03;;;16.30;99.90;;;;;;4977018;28;20047;-73
2021/08/19 07:00:08;;;;;;;8.45;6.45;;;16.30;99.90;;;;;;4977054;28;20030;-72
2021/08/19 07:02:37;;;;;;;13.68;7.05;;;16.20;99.90;;;;;;4975582;28;20103;-72
2021/08/19 07:05:06;;;;;;;8.45;5.93;;;16.20;99.90;;;;;;4976710;28;20518;-72
2021/08/19 07:07:34;;;;;;;8.38;6.47;;;16.10;99.90;;;;;;4975409;28;20464;-71
2021/08/19 07:10:03;;;;;;;9.60;6.50;;;16.00;99.90;;;;;;4976916;28;20030;-70
2021/08/19 07:12:30;;;;;;;10.13;5.85;;;15.90;99.90;;;;;;4975265;28;20042;-71
2021/08/19 07:14:58;;;;;;;8.13;6.25;;;15.90;99.90;;;;;;4976748;28;20118;-71
2021/08/19 07:17:25;;;;;;;9.98;7.35;;;15.80;99.90;;;;;;4976453;28;20019;-72
2021/08/19 07:19:52;;;;;;;11.85;7.15;;;15.80;99.90;;;;;;4976509;28;20379;-71
2021/08/19 07:22:20;;;;;;;8.07;7.28;;;15.70;99.90;;;;;;4975224;28;20396;-71
2021/08/19 07:24:47;;;;;;;9.23;7.30;;;15.70;99.90;;;;;;4976389;28;20023;-72
2021/08/19 07:27:15;;;;;;;8.80;7.90;;;15.60;99.90;;;;;;4976395;28;20587;-72
2021/08/19 07:29:42;;;;;;;12.75;8.65;;;15.60;99.90;;;;;;4976390;28;20400;-71
2021/08/19 07:32:10;;;;;;;9.00;8.15;;;15.60;99.90;;;;;;4975196;28;20559;-71
2021/08/19 07:34:37;;;;;;;10.70;9.20;;;15.50;99.90;;;;;;4974781;28;20070;-71
2021/08/19 07:37:05;;;;;;;11.15;8.82;;;15.40;99.90;;;;;;4974902;28;20054;-71
2021/08/19 07:39:32;;;;;;;9.90;9.00;;;15.40;99.90;;;;;;4974788;28;20049;-71
2021/08/19 07:42:00;;;;;;;9.30;8.40;;;15.30;99.90;;;;;;4976685;28;20063;-71
2021/08/19 07:44:27;;;;;;;11.05;8.82;;;15.20;99.90;;;;;;4976303;28;20027;-70
2021/08/19 07:46:54;;;;;;;9.98;9.02;;;15.20;99.90;;;;;;4974792;28;20026;-71
2021/08/19 07:49:22;;;;;;;9.80;9.00;;;15.20;99.90;;;;;;4975830;28;20046;-71
2021/08/19 07:51:49;;;;;;;11.95;10.13;;;15.10;99.90;;;;;;4975727;28;20042;-71
2021/08/19 07:54:17;;;;;;;13.55;10.27;;;15.10;99.90;;;;;;4975832;28;20027;-70
2021/08/19 07:56:45;;;;;;;12.75;10.07;;;15.00;99.90;;;;;;4975849;28;20102;-71
2021/08/19 07:59:13;;;;;;;11.65;10.65;;;15.00;99.90;;;;;;4974528;28;20038;-71
2021/08/19 08:01:40;;;;;;;12.52;10.93;;;14.90;99.90;;;;;;4974277;28;20468;-71
2021/08/19 08:04:08;;;;;;;15.32;11.57;;;14.80;99.90;;;;;;4974381;28;20062;-71
2021/08/19 08:06:36;;;;;;;12.18;11.02;;;14.70;99.90;;;;;;4975946;28;20026;-71
2021/08/19 08:09:04;;;;;;;11.73;10.63;;;14.60;99.90;;;;;;4975821;28;20026;-74
2021/08/19 08:11:32;;;;;;;12.82;11.65;;;14.60;99.90;;;;;;4975652;28;20027;-71
2021/08/19 08:14:01;;;;;;;12.60;11.43;;;14.50;99.90;;;;;;4975728;28;20472;-71
2021/08/19 08:16:29;;;;;;;13.77;12.00;;;14.50;99.90;;;;;;4974224;28;20047;-71
2021/08/19 08:18:56;;;;;;;13.32;11.75;;;14.40;99.90;;;;;;4975732;28;20383;-71
2021/08/19 08:21:24;;;;;;;14.23;12.68;;;14.40;99.90;;;;;;4975736;28;20026;-71
2021/08/19 08:23:53;;;;;;;14.73;12.40;;;14.40;99.90;;;;;;4975535;28;20031;-72
2021/08/19 08:26:21;;;;;;;15.18;13.63;;;14.40;99.90;;;;;;4975620;28;20027;-72
2021/08/19 08:28:51;;;;;;;14.55;12.50;;;14.40;99.90;;;;;;4975694;28;20031;-73
2021/08/19 08:31:18;;;;;;;17.10;13.30;;;14.40;99.90;;;;;;4974155;28;20458;-71
2021/08/19 08:33:46;;;;;;;15.68;14.02;;;14.30;99.90;;;;;;4974007;28;20156;-72
2021/08/19 08:36:14;;;;;;;15.95;14.38;;;14.40;99.90;;;;;;4975360;28;20372;-71
2021/08/19 08:38:42;;;;;;;16.40;14.85;;;14.50;99.90;;;;;;4974073;28;20033;-71
2021/08/19 08:41:09;;;;;;;16.83;14.25;;;14.50;99.90;;;;;;4975327;28;20018;-71
2021/08/19 08:43:38;;;;;;;16.50;14.93;;;14.50;99.90;;;;;;4975506;28;20023;-71
2021/08/19 08:46:10;;;;;;;17.90;16.10;;;14.50;99.90;;;;;;4975481;28;20031;-71
2021/08/19 08:48:38;;;;;;;17.52;15.82;;;14.40;99.90;;;;;;4975157;28;20435;-71
2021/08/19 08:51:06;;;;;;;18.75;16.95;;;14.40;99.90;;;;;;4975283;28;20465;-71
2021/08/19 08:53:33;;;;;;;21.45;16.25;;;14.50;99.90;;;;;;4973761;28;20023;-71
2021/08/19 08:56:00;;;;;;;17.05;15.38;;;14.40;99.90;;;;;;4974878;28;20037;-70
2021/08/19 08:58:28;;;;;;;17.13;15.23;;;14.40;99.90;;;;;;4975109;28;20019;-71
2021/08/19 09:00:55;;;;;;;16.75;14.95;;;14.40;99.90;;;;;;4974696;28;20018;-72
2021/08/19 09:03:23;;;;;;;18.20;14.70;;;14.40;99.90;;;;;;4974656;28;20031;-72
2021/08/19 09:05:52;;;;;;;18.83;16.80;;;14.30;99.90;;;;;;4975006;28;20055;-71
2021/08/19 09:08:22;;;;;;;17.55;15.88;;;14.30;99.90;;;;;;4973408;28;20085;-71
2021/08/19 09:10:51;;;;;;;18.50;16.60;;;14.30;99.90;;;;;;4974828;28;20403;-72
2021/08/19 09:13:23;;;;;;;18.65;16.30;;;14.20;99.90;;;;;;4974748;28;20026;-71
2021/08/19 09:15:51;;;;;;;17.75;16.08;;;14.20;99.90;;;;;;4974655;28;20054;-72
2021/08/19 09:18:39;;;;;;;18.23;16.50;;;14.10;99.90;;;;;;4973578;28;20025;-71
2021/08/19 09:21:24;;;;;;;19.67;17.33;;;14.10;99.90;;;;;;4974804;28;20073;-70
2021/08/19 09:24:16;;;;;;;19.42;17.63;;;14.00;99.90;;;;;;4974948;28;20463;-71
2021/08/19 09:26:44;;;;;;;19.38;17.45;;;14.00;99.90;;;;;;4963739;28;20035;-72
2021/08/19 09:29:20;;;;;;;18.75;16.75;;;14.00;99.90;;;;;;4974659;28;20030;-71
2021/08/19 09:31:50;;;;;;;18.38;16.45;;;13.90;99.90;;;;;;4974542;28;20456;-72
2021/08/19 09:34:19;;;;;;;20.73;17.48;;;13.80;99.90;;;;;;4972951;28;20046;-71
2021/08/19 09:36:47;;;;;;;18.88;17.25;;;13.80;99.90;;;;;;4974433;28;20499;-72
2021/08/19 09:39:14;;;;;;;17.40;16.17;;;13.80;99.90;;;;;;4973199;28;20480;-71
2021/08/19 09:41:55;;;;;;;17.27;15.52;;;13.80;99.90;;;;;;4973094;28;20057;-71
2021/08/19 09:44:33;;;;;;;17.98;16.35;;;13.80;99.90;;;;;;4974295;28;20080;-71
2021/08/19 09:47:01;;;;;;;19.17;17.10;;;13.80;99.90;;;;;;4974719;28;20034;-72
2021/08/19 09:49:34;;;;;;;18.88;16.45;;;13.70;99.90;;;;;;4974217;28;20023;-71
2021/08/19 09:52:06;;;;;;;18.27;16.48;;;13.80;99.90;;;;;;4972884;28;20535;-71
2021/08/19 09:54:36;;;;;;;18.10;16.38;;;13.70;99.90;;;;;;4972905;28;20034;-72
2021/08/19 09:57:05;;;;;;;17.60;15.63;;;13.70;99.90;;;;;;4974220;28;20027;-71
2021/08/19 09:59:39;;;;;;;17.73;15.88;;;13.70;99.90;;;;;;4974228;28;20027;-71
2021/08/19 10:02:10;;;;;;;16.27;14.93;;;13.70;99.90;;;;;;4974094;28;20329;-71
2021/08/19 10:04:38;;;;;;;17.30;16.02;;;13.60;99.90;;;;;;4972395;28;20097;-70
2021/08/19 10:07:05;;;;;;;16.08;14.85;;;13.60;99.90;;;;;;4974136;28;20058;-70
2021/08/19 10:09:33;;;;;;;17.08;15.30;;;13.50;99.90;;;;;;4973974;28;20029;-70
2021/08/19 10:12:01;;;;;;;17.52;15.82;;;13.50;99.90;;;;;;4972659;28;20050;-72
2021/08/19 10:14:30;;;;;;;17.08;15.68;;;13.50;99.90;;;;;;4976039;28;20504;-73
2021/08/19 10:16:58;;;;;;;17.25;15.57;;;13.50;99.90;;;;;;4976363;28;20118;-72
2021/08/19 10:19:44;;;;;;;17.38;15.77;;;13.40;99.90;;;;;;4977688;28;20369;-71
2021/08/19 10:22:22;;;;;;;15.93;14.52;;;13.40;99.90;;;;;;4976168;28;20447;-72
2021/08/19 10:24:56;;;;;;;17.60;16.20;;;13.40;99.90;;;;;;4977570;28;20026;-71
2021/08/19 10:27:27;;;;;;;17.52;15.90;;;13.30;99.90;;;;;;4977750;28;20073;-71
2021/08/19 10:29:59;;;;;;;17.52;15.93;;;13.30;99.90;;;;;;4977710;28;20027;-72
2021/08/19 10:32:34;;;;;;;17.52;15.82;;;13.30;99.90;;;;;;4976300;28;20105;-72
2021/08/19 10:35:11;;;;;;;16.02;14.45;;;13.20;99.90;;;;;;4977241;28;20034;-72
2021/08/19 10:37:48;;;;;;;17.70;15.40;;;13.20;99.90;;;;;;4976190;28;20023;-73
2021/08/19 10:40:25;;;;;;;16.88;15.27;;;13.20;99.90;;;;;;4975799;28;20023;-72
2021/08/19 10:43:19;;;;;;;18.33;16.65;;;13.20;99.90;;;;;;4975790;28;20034;-73
2021/08/19 10:45:47;;;;;;;17.77;16.20;;;13.20;99.90;;;;;;4959503;28;20062;-72
2021/08/19 10:48:15;;;;;;;18.48;16.88;;;13.20;99.90;;;;;;4959392;28;20042;-72
2021/08/19 10:50:46;;;;;;;18.13;16.58;;;13.20;99.90;;;;;;4976976;28;20113;-72
2021/08/19 10:53:21;;;;;;;18.27;16.10;;;13.20;99.90;;;;;;4977346;28;20039;-73
2021/08/19 10:55:52;;;;;;;24.90;17.10;;;13.30;99.90;;;;;;4975717;28;20085;-71
2021/08/19 10:58:35;;;;;;;17.85;16.08;;;13.30;99.90;;;;;;4976215;28;20034;-73
2021/08/19 11:01:14;;;;;;;18.70;16.58;;;13.40;99.90;;;;;;4977110;28;20428;-73
2021/08/19 11:03:46;;;;;;;18.17;16.33;;;13.50;99.90;;;;;;4975712;28;20290;-73
2021/08/19 11:06:19;;;;;;;17.33;15.48;;;13.50;99.90;;;;;;4977130;28;20510;-72
2021/08/19 11:08:52;;;;;;;17.92;16.25;;;13.50;99.90;;;;;;4975486;28;20027;-72
2021/08/19 11:11:39;;;;;;;17.52;15.82;;;13.60;99.90;;;;;;4975874;28;20033;-72
2021/08/19 11:14:10;;;;;;;20.27;15.85;;;13.60;99.90;;;;;;4976809;28;20061;-73
2021/08/19 11:16:39;;;;;;;17.42;15.82;;;13.60;99.90;;;;;;4975528;28;20058;-73
2021/08/19 11:19:20;;;;;;;17.27;15.88;;;13.70;99.90;;;;;;4975297;28;20027;-73
2021/08/19 11:21:51;;;;;;;;;;;13.60;99.90;;;;;;4977247;28;20101;-71
2021/08/19 11:24:19;;;;;;;16.95;15.55;;;13.70;99.90;;;;;;4975777;28;20316;-71
2021/08/19 11:27:02;;;;;;;16.90;15.38;;;13.70;99.90;;;;;;4976486;28;20023;-72
2021/08/19 11:29:43;;;;;;;19.58;16.33;;;13.80;99.90;;;;;;4976637;28;20037;-71
2021/08/19 11:32:13;;;;;;;17.75;15.95;;;13.80;99.90;;;;;;4975440;28;20030;-72
2021/08/19 11:34:49;;;;;;;16.88;15.07;;;13.80;99.90;;;;;;4976282;28;20503;-72
2021/08/19 11:37:34;;;;;;;18.30;16.63;;;13.80;99.90;;;;;;4976790;28;20031;-73
2021/08/19 11:40:03;;;;;;;17.50;15.98;;;13.80;99.90;;;;;;4975042;28;20432;-72
2021/08/19 11:42:32;;;;;;;17.30;15.75;;;13.80;99.90;;;;;;4976453;28;20022;-71
2021/08/19 11:45:35;;;;;;;16.35;15.00;;;13.90;99.90;;;;;;4975196;28;20400;-72
2021/08/19 11:48:02;;;;;;;15.88;14.57;;;13.90;99.90;;;;;;4881898;29;20601;-73
2021/08/19 11:50:30;;;;;;;18.40;14.48;;;13.90;99.90;;;;;;4960432;28;20034;-73
2021/08/19 11:53:04;;;;;;;16.02;14.63;;;13.90;99.90;;;;;;4976232;28;20058;-73
2021/08/19 11:55:33;;;;;;;16.27;14.23;;;13.90;99.90;;;;;;4976105;28;20037;-73
2021/08/19 11:58:22;;;;;;;14.13;12.90;;;13.90;99.90;;;;;;4974715;28;20023;-72
2021/08/19 12:01:06;;;;;;;15.27;13.82;;;13.90;99.90;;;;;;4975789;28;20069;-72
2021/08/19 12:03:41;;;;;;;16.27;14.63;;;13.90;99.90;;;;;;4975788;28;20019;-72
2021/08/19 12:06:11;;;;;;;15.07;13.73;;;13.90;99.90;;;;;;4975924;28;20023;-72
2021/08/19 12:08:50;;;;;;;16.23;14.80;;;13.90;99.90;;;;;;4974803;28;20093;-72
2021/08/19 12:11:26;;;;;;;16.48;14.88;;;13.90;99.90;;;;;;4975888;28;20033;-73
2021/08/19 12:13:54;;;;;;;15.85;14.50;;;13.90;99.90;;;;;;4975607;28;20375;-72
2021/08/19 12:16:26;;;;;;;17.48;14.10;;;13.90;99.90;;;;;;4975398;28;20109;-72
2021/08/19 12:19:12;;;;;;;15.80;14.25;;;13.90;99.90;;;;;;4974641;28;20042;-74
2021/08/19 12:21:53;;;;;;;18.92;15.00;;;13.90;99.90;;;;;;4975599;28;20057;-73
2021/08/19 12:24:22;;;;;;;16.98;15.20;;;13.90;99.90;;;;;;4975552;28;20023;-72
2021/08/19 12:27:08;;;;;;;18.45;15.35;;;13.90;99.90;;;;;;4975944;28;20027;-73
2021/08/19 12:29:38;;;;;;;16.45;14.70;;;13.90;99.90;;;;;;4974099;28;20038;-72
2021/08/19 12:32:05;;;;;;;14.73;13.18;;;13.80;99.90;;;;;;4975489;28;20023;-72
2021/08/19 12:35:11;;;;;;;15.75;13.30;;;13.90;99.90;;;;;;4974182;28;20066;-72
2021/08/19 12:37:41;;;;;;;15.48;13.98;;;13.80;99.90;;;;;;4973924;28;20027;-73
2021/08/19 12:40:16;;;;;;;17.33;15.47;;;13.80;99.90;;;;;;4975537;28;20023;-72
2021/08/19 12:42:47;;;;;;;16.08;14.48;;;13.80;99.90;;;;;;4957827;28;20276;-72
2021/08/19 12:45:17;;;;;;;15.30;13.90;;;13.80;99.90;;;;;;4973912;28;20432;-73
2021/08/19 12:47:48;;;;;;;15.45;14.15;;;13.80;99.90;;;;;;4973943;28;20085;-73
2021/08/19 12:50:22;;;;;;;16.73;14.95;;;13.80;99.90;;;;;;4973846;28;20041;-73